Time;durP1;ratioP1;P1;durP2;ratioP2;P2;SDS_P1;SDS_P2;PMS_P1;PMS_P2;Temp;Humidity;BMP_temperature;BMP_pressure;BME280_temperature;BME280_humidity;BME280_pressure;Samples;Min_cycle;Max_cycle;Signal;HPM_P1;HPM_P2
2024/01/23 00:02:19;;;;;;;46.30;25.55;;;;;;;5.63;62.13;102119.91;5005929;28;20060;-80
2024/01/23 00:04:46;;;;;;;46.78;23.88;;;;;;;5.85;63.02;102175.16;5012199;28;20519;-81
2024/01/23 00:07:13;;;;;;;39.33;22.40;;;;;;;5.75;61.97;102148.34;5016419;28;20044;-82
2024/01/23 00:09:40;;;;;;;40.03;23.73;;;;;;;5.88;62.40;102169.75;5040051;28;20322;-81
2024/01/23 00:12:07;;;;;;;46.50;22.98;;;;;;;5.82;62.99;102164.75;5020277;28;20659;-80
2024/01/23 00:14:34;;;;;;;35.42;21.75;;;;;;;5.67;64.19;102138.13;5036424;28;20145;-81
2024/01/23 00:17:01;;;;;;;48.25;25.92;;;;;;;5.83;64.91;102161.19;5020643;28;20141;-79
2024/01/23 00:19:30;;;;;;;39.63;21.65;;;;;;;5.83;64.03;102167.31;5035406;28;20466;-82
2024/01/23 00:21:57;;;;;;;39.08;23.52;;;;;;;5.84;62.80;102176.94;5021656;28;20060;-80
2024/01/23 00:24:25;;;;;;;41.03;24.17;;;;;;;5.59;62.45;102142.91;5014965;28;20044;-80
2024/01/23 00:26:57;;;;;;;31.85;21.63;;;;;;;5.87;62.67;102175.94;5002414;28;20071;-81
2024/01/23 00:29:34;;;;;;;33.75;22.67;;;;;;;5.67;64.34;102135.50;5018898;28;20067;-81
2024/01/23 00:32:06;;;;;;;39.35;23.17;;;;;;;5.85;64.45;102152.31;5042001;28;20048;-80
2024/01/23 00:34:34;;;;;;;47.97;22.77;;;;;;;5.83;62.55;102125.16;5014584;28;20695;-80
2024/01/23 00:37:06;;;;;;;40.90;22.52;;;;;;;5.86;62.41;102110.97;5029096;28;20048;-80
2024/01/23 00:39:39;;;;;;;50.15;24.70;;;;;;;5.96;63.56;102136.03;5047214;28;20053;-79
2024/01/23 00:42:09;;;;;;;41.10;22.92;;;;;;;5.90;62.36;102128.38;5016917;28;20057;-81
2024/01/23 00:44:36;;;;;;;38.20;22.23;;;;;;;5.72;63.83;102103.69;5012901;28;20376;-80
2024/01/23 00:47:03;;;;;;;41.90;21.80;;;;;;;5.74;63.66;102120.28;5001764;28;20082;-79
2024/01/23 00:49:31;;;;;;;40.95;22.45;;;;;;;5.69;62.62;102123.13;5008419;28;20061;-84
2024/01/23 00:51:58;;;;;;;39.63;24.35;;;;;;;5.59;61.26;102111.28;5010165;28;20048;-81
2024/01/23 00:54:25;;;;;;;43.70;21.90;;;;;;;5.65;61.28;102147.88;5012737;28;20158;-80
2024/01/23 00:56:52;;;;;;;36.38;23.02;;;;;;;5.64;60.52;102167.25;5013511;28;20071;-80
2024/01/23 00:59:19;;;;;;;36.15;22.85;;;;;;;5.20;60.71;102093.66;5018396;28;20048;-78
2024/01/23 01:01:47;;;;;;;36.75;21.13;;;;;;;5.40;60.34;102134.06;5015879;28;20068;-80
2024/01/23 01:04:22;;;;;;;36.08;22.58;;;;;;;5.43;60.76;102149.75;5020573;28;20157;-80
2024/01/23 01:06:51;;;;;;;39.15;24.45;;;;;;;5.31;62.25;102143.22;4994414;28;20045;-78
2024/01/23 01:09:22;;;;;;;34.72;22.90;;;;;;;5.00;60.93;102101.50;5019970;28;20811;-80
2024/01/23 01:11:50;;;;;;;39.08;25.92;;;;;;;5.24;61.56;102163.69;5000587;28;20410;-79
2024/01/23 01:14:19;;;;;;;44.58;24.35;;;;;;;5.20;61.23;102172.63;5008048;28;20084;-78
2024/01/23 01:16:46;;;;;;;34.58;23.42;;;;;;;5.18;61.36;102163.94;4992932;28;20300;-79
2024/01/23 01:19:12;;;;;;;40.33;22.95;;;;;;;4.91;61.12;102093.09;5005564;28;20434;-80
2024/01/23 01:21:39;;;;;;;36.90;23.17;;;;;;;4.91;61.48;102119.41;5013697;28;20049;-80
2024/01/23 01:24:08;;;;;;;39.55;24.95;;;;;;;5.15;61.57;102169.34;5001514;28;20242;-80
2024/01/23 01:26:37;;;;;;;35.55;23.77;;;;;;;5.14;60.91;102162.34;4993534;28;20096;-80
2024/01/23 01:29:04;;;;;;;36.60;25.02;;;;;;;4.59;61.67;102090.94;4987180;28;20045;-80
2024/01/23 01:31:38;;;;;;;35.85;22.63;;;;;;;5.02;62.62;102183.91;5021136;28;20056;-81
2024/01/23 01:34:04;;;;;;;39.22;23.80;;;;;;;5.01;62.94;102192.72;4994055;28;20054;-80
2024/01/23 01:36:32;;;;;;;35.05;23.52;;;;;;;4.92;63.08;102173.75;5016154;28;20603;-82
2024/01/23 01:39:03;;;;;;;40.78;23.17;;;;;;;4.86;62.54;102166.09;4995557;28;20052;-81
2024/01/23 01:41:30;;;;;;;39.22;24.17;;;;;;;4.71;62.95;102137.78;4993989;28;20101;-81
2024/01/23 01:43:57;;;;;;;36.40;23.63;;;;;;;4.82;63.84;102167.13;4988194;28;20059;-78
2024/01/23 01:46:25;;;;;;;38.72;23.40;;;;;;;4.87;64.27;102188.88;4991063;28;20099;-80
2024/01/23 01:48:56;;;;;;;40.28;24.17;;;;;;;4.84;64.26;102183.72;5017673;28;20041;-80
2024/01/23 01:51:27;;;;;;;36.13;24.10;;;;;;;5.00;63.29;102181.34;4983020;28;20048;-80
2024/01/23 01:53:57;;;;;;;35.80;23.15;;;;;;;4.80;64.61;102173.38;5002664;28;20041;-81
2024/01/23 01:56:25;;;;;;;41.17;24.58;;;;;;;4.59;63.88;102143.53;5010285;28;20166;-82
2024/01/23 01:58:53;;;;;;;42.05;24.92;;;;;;;3.78;63.81;102009.03;5011073;28;20776;-82
2024/01/23 02:01:27;;;;;;;37.05;24.40;;;;;;;4.64;64.34;102158.22;4989075;28;20135;-81
2024/01/23 02:03:55;;;;;;;34.97;23.70;;;;;;;4.19;64.65;102103.84;4996303;28;20286;-80
2024/01/23 02:06:23;;;;;;;39.03;23.98;;;;;;;4.80;63.62;102141.81;4983664;28;20042;-81
2024/01/23 02:08:50;;;;;;;39.28;22.77;;;;;;;4.62;64.25;102153.94;4964336;28;20068;-81
2024/01/23 02:11:16;;;;;;;35.03;24.48;;;;;;;4.18;65.74;102096.88;4952471;28;20619;-83
2024/01/23 02:13:43;;;;;;;35.85;22.50;;;;;;;4.54;66.38;102167.38;4976054;28;20447;-80
2024/01/23 02:16:10;;;;;;;39.40;24.63;;;;;;;4.55;66.18;102163.81;4978876;28;20059;-79
2024/01/23 02:18:37;;;;;;;38.40;23.67;;;;;;;4.44;66.01;102151.09;4946816;28;20052;-82
2024/01/23 02:21:09;;;;;;;36.17;23.80;;;;;;;4.53;65.09;102138.50;4954104;28;20312;-82
2024/01/23 02:23:36;;;;;;;;;;;;;;;4.73;64.27;102162.22;4977702;28;20404;-80
2024/01/23 02:26:03;;;;;;;35.58;23.35;;;;;;;4.58;64.99;102137.41;4957210;28;20377;-80
2024/01/23 02:28:33;;;;;;;51.25;24.52;;;;;;;4.46;66.15;102143.97;4953683;28;20057;-82
2024/01/23 02:31:03;;;;;;;52.15;23.73;;;;;;;4.04;66.32;102099.19;4956276;28;20125;-82
2024/01/23 02:33:31;;;;;;;61.03;25.65;;;;;;;4.42;66.60;102173.97;4965283;28;20125;-82
2024/01/23 02:35:58;;;;;;;49.97;24.23;;;;;;;4.24;65.56;102148.34;4950223;28;21039;-81
2024/01/23 02:38:25;;;;;;;41.45;23.73;;;;;;;4.10;64.78;102108.59;4967377;28;20256;-82
2024/01/23 02:40:58;;;;;;;35.20;22.83;;;;;;;4.43;64.44;102149.38;4978419;28;20412;-81
2024/01/23 02:43:24;;;;;;;40.35;23.13;;;;;;;4.04;64.38;102084.25;4951207;28;20136;-80
2024/01/23 02:45:53;;;;;;;40.33;25.13;;;;;;;4.50;64.91;102174.53;4949903;28;20064;-80
2024/01/23 02:48:20;;;;;;;35.92;24.13;;;;;;;4.37;64.57;102175.91;4973732;28;20145;-79
2024/01/23 02:50:47;;;;;;;34.95;24.77;;;;;;;4.42;64.54;102173.97;4951835;28;20185;-81
2024/01/23 02:53:20;;;;;;;43.47;24.92;;;;;;;4.06;64.11;102105.22;4942282;28;20053;-79
2024/01/23 02:55:46;;;;;;;38.28;24.63;;;;;;;4.33;64.72;102155.91;4952305;28;20427;-80
2024/01/23 02:58:17;;;;;;;44.65;24.23;;;;;;;4.55;64.36;102168.22;4962423;28;20440;-81
2024/01/23 03:00:44;;;;;;;38.17;23.93;;;;;;;4.46;64.13;102170.28;4967224;28;20212;-81
2024/01/23 03:03:11;;;;;;;49.13;23.25;;;;;;;4.03;64.41;102098.31;4965117;28;20151;-81
2024/01/23 03:05:39;;;;;;;43.00;25.10;;;;;;;4.40;64.42;102182.84;4971673;28;20135;-79
2024/01/23 03:08:06;;;;;;;45.25;24.83;;;;;;;4.31;65.88;102176.13;4988161;28;20094;-79
2024/01/23 03:10:37;;;;;;;41.28;24.25;;;;;;;4.28;66.06;102189.41;4975137;28;20052;-82
2024/01/23 03:13:07;;;;;;;50.70;24.90;;;;;;;4.14;66.26;102183.78;5002670;28;20315;-79
2024/01/23 03:15:34;;;;;;;46.70;25.35;;;;;;;3.93;66.52;102170.53;4958113;28;20437;-80
2024/01/23 03:18:01;;;;;;;43.83;25.58;;;;;;;4.15;67.09;102227.56;4983393;28;20150;-78
2024/01/23 03:20:29;;;;;;;40.67;24.75;;;;;;;3.99;66.17;102207.09;4983834;28;20123;-80
2024/01/23 03:23:02;;;;;;;39.83;25.02;;;;;;;4.19;66.24;102218.66;4991180;28;20429;-80
2024/01/23 03:25:33;;;;;;;42.35;25.98;;;;;;;3.47;65.46;102100.38;4991979;28;20049;-81
2024/01/23 03:27:59;;;;;;;44.13;24.73;;;;;;;4.23;65.68;102220.25;4991493;28;20126;-79
2024/01/23 03:30:35;;;;;;;41.50;25.60;;;;;;;4.24;65.92;102224.59;5004973;28;20061;-79
2024/01/23 03:33:02;;;;;;;38.05;24.35;;;;;;;4.20;65.28;102200.19;4989089;28;20482;-79
2024/01/23 03:35:29;;;;;;;39.85;24.85;;;;;;;3.82;64.99;102135.91;5008780;28;20298;-80
2024/01/23 03:38:00;;;;;;;35.17;23.10;;;;;;;4.11;64.51;102178.66;4992705;28;20067;-80
2024/01/23 03:40:30;;;;;;;33.47;24.02;;;;;;;4.01;64.59;102162.38;4982735;28;20402;-79
2024/01/23 03:42:57;;;;;;;42.40;24.25;;;;;;;4.08;65.47;102177.00;5002234;28;20043;-79
2024/01/23 03:45:24;;;;;;;36.17;23.40;;;;;;;4.38;64.69;102213.59;5002595;28;20044;-80
2024/01/23 03:47:50;;;;;;;35.70;24.13;;;;;;;4.22;64.63;102182.59;4988678;28;20227;-79
2024/01/23 03:50:21;;;;;;;43.33;23.52;;;;;;;4.45;64.84;102221.19;4981370;28;20106;-81
2024/01/23 03:52:51;;;;;;;34.83;23.02;;;;;;;4.44;65.09;102216.84;5020684;28;20050;-80
2024/01/23 03:55:19;;;;;;;36.55;22.35;;;;;;;4.40;65.14;102217.00;4990703;28;20048;-81
2024/01/23 03:57:47;;;;;;;33.65;23.10;;;;;;;4.00;63.68;102156.22;4988351;28;20121;-79
2024/01/23 04:00:14;;;;;;;33.40;22.13;;;;;;;4.46;63.58;102227.28;4993857;28;20118;-80
2024/01/23 04:02:43;;;;;;;36.83;22.83;;;;;;;4.50;62.81;102229.75;4988466;28;20449;-78
2024/01/23 04:05:16;;;;;;;33.88;22.27;;;;;;;4.42;63.22;102231.81;5010776;28;20059;-80
2024/01/23 04:07:43;;;;;;;34.17;21.60;;;;;;;4.51;63.43;102246.38;5007154;28;20059;-80
2024/01/23 04:10:11;;;;;;;39.83;23.05;;;;;;;3.73;62.53;102116.06;5017757;28;20380;-80
2024/01/23 04:12:38;;;;;;;34.08;22.75;;;;;;;4.43;62.47;102233.53;5019752;28;20121;-79
2024/01/23 04:15:05;;;;;;;46.40;23.83;;;;;;;4.62;62.47;102248.63;5010189;28;20079;-80
2024/01/23 04:17:32;;;;;;;35.78;23.15;;;;;;;4.70;62.98;102267.59;5008981;28;20379;-79
2024/01/23 04:19:59;;;;;;;34.42;21.25;;;;;;;4.76;62.50;102283.16;5015856;28;20048;-80
2024/01/23 04:22:26;;;;;;;35.83;21.67;;;;;;;4.63;62.40;102272.22;5044742;28;20432;-80
2024/01/23 04:24:53;;;;;;;37.95;22.00;;;;;;;4.60;62.65;102282.88;5036607;28;20517;-81
2024/01/23 04:27:19;;;;;;;32.63;21.48;;;;;;;4.55;62.51;102284.81;5026160;28;20072;-79
2024/01/23 04:29:46;;;;;;;33.47;22.25;;;;;;;4.63;62.45;102301.16;5014934;28;20052;-79
2024/01/23 04:32:13;;;;;;;33.15;20.27;;;;;;;4.46;62.74;102275.47;5036997;28;20076;-80
2024/01/23 04:34:40;;;;;;;35.53;20.50;;;;;;;4.61;63.23;102303.03;5028916;28;20501;-81
2024/01/23 04:37:07;;;;;;;31.45;19.73;;;;;;;4.62;63.40;102295.97;5014020;28;20288;-80
2024/01/23 04:39:33;;;;;;;33.45;19.38;;;;;;;4.60;63.32;102284.66;5012749;28;20055;-79
2024/01/23 04:42:02;;;;;;;38.55;21.80;;;;;;;4.31;63.00;102220.81;5025580;28;20571;-80
2024/01/23 04:44:29;;;;;;;33.75;19.88;;;;;;;4.55;63.30;102249.78;5013250;28;20049;-80
2024/01/23 04:46:55;;;;;;;32.75;20.73;;;;;;;4.70;64.44;102286.03;5008655;28;20037;-78
2024/01/23 04:49:22;;;;;;;37.75;19.35;;;;;;;4.60;64.97;102260.97;5012380;28;20521;-79
2024/01/23 04:51:49;;;;;;;35.22;21.95;;;;;;;4.75;64.05;102286.69;5016847;28;20482;-81
2024/01/23 04:54:16;;;;;;;34.22;21.35;;;;;;;4.79;64.71;102297.97;5021368;28;20062;-81
2024/01/23 04:56:42;;;;;;;38.92;22.38;;;;;;;4.65;64.80;102275.66;5010026;28;20500;-80
2024/01/23 04:59:09;;;;;;;37.25;21.52;;;;;;;4.84;65.08;102291.63;5014721;28;20488;-80
2024/01/23 05:01:36;;;;;;;34.60;21.35;;;;;;;4.89;64.23;102294.94;5014501;28;20070;-80
2024/01/23 05:04:04;;;;;;;38.75;21.40;;;;;;;4.84;63.92;102265.31;4999921;28;20056;-80
2024/01/23 05:06:35;;;;;;;32.95;21.08;;;;;;;4.97;63.66;102276.22;4981173;28;20320;-80
2024/01/23 05:09:02;;;;;;;28.92;18.85;;;;;;;4.96;64.33;102273.66;5001702;28;20052;-80
2024/01/23 05:11:29;;;;;;;36.28;22.00;;;;;;;5.02;64.81;102290.03;5010912;28;20446;-80
2024/01/23 05:13:56;;;;;;;32.72;20.75;;;;;;;5.07;64.91;102310.94;5010341;28;20048;-81
2024/01/23 05:16:23;;;;;;;32.35;21.65;;;;;;;5.06;65.57;102311.84;5010884;28;20932;-80
2024/01/23 05:18:50;;;;;;;30.40;20.23;;;;;;;4.96;64.80;102303.47;5010065;28;20410;-81
2024/01/23 05:21:17;;;;;;;31.48;19.27;;;;;;;5.00;65.35;102289.28;5011438;28;20060;-80
2024/01/23 05:23:46;;;;;;;30.00;20.23;;;;;;;4.93;65.13;102257.06;5012101;28;20060;-81
2024/01/23 05:26:13;;;;;;;31.98;20.08;;;;;;;5.08;66.03;102299.50;5003898;28;20060;-79
2024/01/23 05:28:40;;;;;;;34.65;20.40;;;;;;;4.92;65.78;102279.00;4996794;28;20049;-81
2024/01/23 05:31:07;;;;;;;38.65;21.48;;;;;;;4.86;65.62;102267.88;5005999;28;20146;-79
2024/01/23 05:33:34;;;;;;;39.67;20.60;;;;;;;5.03;65.33;102281.25;5013595;28;20053;-80
2024/01/23 05:36:01;;;;;;;34.42;21.27;;;;;;;5.10;66.32;102303.78;5022006;28;20047;-79
2024/01/23 05:38:28;;;;;;;40.47;20.27;;;;;;;5.20;66.81;102314.81;5017791;28;20102;-81
2024/01/23 05:40:55;;;;;;;33.88;20.85;;;;;;;5.16;66.21;102313.22;5014438;28;20078;-81
2024/01/23 05:43:22;;;;;;;36.75;20.40;;;;;;;5.04;64.94;102292.63;5000838;28;20060;-80
2024/01/23 05:45:49;;;;;;;38.42;20.73;;;;;;;4.16;63.80;102151.28;4990509;28;20651;-79
2024/01/23 05:48:16;;;;;;;31.73;21.08;;;;;;;5.23;63.11;102322.59;4986191;28;20045;-81
2024/01/23 05:50:44;;;;;;;36.83;21.10;;;;;;;5.38;63.37;102343.97;4971564;28;20049;-80
2024/01/23 05:53:10;;;;;;;35.38;19.95;;;;;;;5.22;63.91;102318.25;4995273;28;20049;-79
2024/01/23 05:55:39;;;;;;;38.17;22.55;;;;;;;5.43;63.39;102348.13;5007839;28;20044;-80
2024/01/23 05:58:06;;;;;;;38.00;22.67;;;;;;;5.45;62.70;102350.72;5006907;28;20049;-79
2024/01/23 06:00:33;;;;;;;40.47;22.30;;;;;;;5.11;61.24;102289.69;5002368;28;20052;-79
2024/01/23 06:03:31;;;;;;;40.20;21.85;;;;;;;5.52;60.32;102350.41;5012816;28;20332;-80
2024/01/23 06:06:06;;;;;;;35.63;20.48;;;;;;;5.49;61.44;102341.78;5042361;28;20163;-78
2024/01/23 06:08:33;;;;;;;37.25;23.40;;;;;;;5.42;60.00;102332.41;5049416;28;20092;-79
2024/01/23 06:11:05;;;;;;;34.08;21.88;;;;;;;5.58;58.49;102349.31;5048291;28;20064;-79
2024/01/23 06:13:41;;;;;;;35.95;21.35;;;;;;;5.41;58.66;102323.63;5049878;28;20705;-81
2024/01/23 06:16:11;;;;;;;44.17;22.92;;;;;;;5.64;58.67;102351.72;5040982;28;20044;-81
2024/01/23 06:18:37;;;;;;;35.28;22.20;;;;;;;5.56;59.37;102327.47;5036262;28;20045;-80
2024/01/23 06:21:10;;;;;;;35.90;20.75;;;;;;;5.58;58.67;102330.84;5060816;28;20136;-79
2024/01/23 06:23:43;;;;;;;35.25;22.00;;;;;;;5.41;59.52;102302.56;5045276;28;20118;-79
2024/01/23 06:26:12;;;;;;;39.20;22.23;;;;;;;5.73;58.10;102356.59;5044906;28;20497;-81
2024/01/23 06:28:42;;;;;;;36.42;19.45;;;;;;;5.71;58.52;102336.50;5044625;28;20045;-77
2024/01/23 06:31:08;;;;;;;32.42;19.98;;;;;;;5.74;59.39;102353.03;5045420;28;20057;-79
2024/01/23 06:33:35;;;;;;;38.10;22.67;;;;;;;5.73;57.71;102350.50;5040784;28;20044;-80
2024/01/23 06:36:02;;;;;;;38.55;23.98;;;;;;;5.68;57.88;102342.75;5044663;28;20135;-80
2024/01/23 06:38:29;;;;;;;38.97;22.80;;;;;;;5.78;57.49;102353.78;5050171;28;20071;-80
2024/01/23 06:40:56;;;;;;;39.95;23.58;;;;;;;5.69;57.15;102339.19;5050292;28;20123;-81
2024/01/23 06:43:25;;;;;;;42.70;23.85;;;;;;;5.90;56.92;102363.84;5030964;28;20077;-77
2024/01/23 06:45:56;;;;;;;43.63;24.63;;;;;;;5.93;56.73;102357.56;5038234;28;20502;-78
2024/01/23 06:48:23;;;;;;;45.90;25.98;;;;;;;5.99;56.77;102362.59;5044863;28;20087;-80
2024/01/23 06:51:00;;;;;;;37.55;24.73;;;;;;;6.10;56.59;102364.81;5045581;28;20052;-79
2024/01/23 06:53:27;;;;;;;44.72;27.63;;;;;;;6.15;56.42;102379.50;5041748;28;20226;-80
2024/01/23 06:55:53;;;;;;;47.25;26.98;;;;;;;6.00;56.76;102364.34;5025521;28;20049;-80
2024/01/23 06:58:34;;;;;;;47.70;28.17;;;;;;;6.24;56.67;102390.59;5043382;28;20060;-80
2024/01/23 07:01:00;;;;;;;42.85;27.67;;;;;;;6.24;56.44;102380.03;5044797;28;20041;-80
2024/01/23 07:03:29;;;;;;;51.42;29.90;;;;;;;6.22;56.69;102380.13;5045643;28;20049;-82
2024/01/23 07:05:55;;;;;;;51.33;29.48;;;;;;;6.19;56.67;102375.84;5043960;28;20061;-81
2024/01/23 07:08:22;;;;;;;46.85;26.23;;;;;;;6.24;57.24;102387.94;5039457;28;20049;-81
2024/01/23 07:10:59;;;;;;;55.33;28.35;;;;;;;6.22;56.94;102372.19;5044223;28;20049;-78
2024/01/23 07:13:26;;;;;;;49.97;29.77;;;;;;;6.35;56.97;102394.47;5041487;28;20053;-80
2024/01/23 07:15:58;;;;;;;42.65;27.63;;;;;;;6.25;56.71;102361.50;5046167;28;20055;-80
2024/01/23 07:18:30;;;;;;;45.90;28.45;;;;;;;6.05;56.85;102345.69;5044029;28;20458;-80
2024/01/23 07:20:58;;;;;;;50.85;30.98;;;;;;;5.92;57.04;102321.56;5049945;28;20041;-80
2024/01/23 07:23:24;;;;;;;46.33;30.60;;;;;;;6.32;57.48;102391.13;5024343;28;20057;-80
2024/01/23 07:25:54;;;;;;;44.38;28.38;;;;;;;6.29;57.57;102378.94;5039680;28;20068;-82
2024/01/23 07:28:21;;;;;;;48.80;31.02;;;;;;;6.36;57.58;102392.69;5057245;28;20048;-82
2024/01/23 07:31:07;;;;;;;47.00;31.23;;;;;;;6.42;57.30;102397.72;5044414;28;20243;-80
2024/01/23 07:33:34;;;;;;;48.42;30.90;;;;;;;5.42;57.96;102233.19;5046336;28;20044;-80
2024/01/23 07:36:07;;;;;;;46.53;30.63;;;;;;;6.50;57.44;102397.38;5048083;28;20128;-81
2024/01/23 07:38:34;;;;;;;54.03;31.05;;;;;;;6.44;57.32;102400.31;5058668;28;20048;-80
2024/01/23 07:41:00;;;;;;;51.17;32.40;;;;;;;6.44;57.31;102398.53;5044023;28;20529;-79
2024/01/23 07:43:36;;;;;;;47.97;30.13;;;;;;;6.27;57.05;102378.13;5045908;28;20049;-81
2024/01/23 07:46:09;;;;;;;51.38;31.98;;;;;;;6.37;57.98;102410.25;5044202;28;20049;-80
2024/01/23 07:48:41;;;;;;;52.28;30.73;;;;;;;6.41;57.74;102422.41;5038943;28;20503;-80
2024/01/23 07:51:11;;;;;;;48.25;32.58;;;;;;;6.30;57.39;102398.25;5042506;28;20047;-81
2024/01/23 07:53:38;;;;;;;51.95;31.55;;;;;;;6.40;58.11;102420.69;5038825;28;20101;-81
2024/01/23 07:56:05;;;;;;;49.47;32.72;;;;;;;6.46;57.50;102430.97;5042090;28;20049;-81
2024/01/23 07:58:41;;;;;;;57.05;32.60;;;;;;;6.34;57.31;102416.53;5042615;28;20533;-81
2024/01/23 08:01:08;;;;;;;49.15;31.73;;;;;;;6.54;57.40;102428.00;5041888;28;20061;-81
2024/01/23 08:03:37;;;;;;;47.78;32.35;;;;;;;6.56;57.07;102431.44;5052843;28;20444;-82
2024/01/23 08:06:04;;;;;;;54.53;35.40;;;;;;;6.40;57.53;102425.94;5044266;28;20560;-80
2024/01/23 08:08:31;;;;;;;46.97;32.30;;;;;;;6.53;56.45;102442.09;5041979;28;20049;-81
2024/01/23 08:11:01;;;;;;;45.45;31.90;;;;;;;6.58;56.64;102451.56;5041223;28;20668;-80
2024/01/23 08:13:30;;;;;;;48.67;30.83;;;;;;;6.53;56.78;102445.63;5042339;28;20368;-79
2024/01/23 08:15:57;;;;;;;50.92;32.08;;;;;;;6.50;56.30;102448.38;5044178;28;20461;-78
2024/01/23 08:18:38;;;;;;;45.17;30.65;;;;;;;6.58;56.27;102462.13;5041075;28;20052;-80
2024/01/23 08:21:05;;;;;;;49.30;31.13;;;;;;;6.61;55.63;102469.06;5042472;28;20369;-78
2024/01/23 08:23:36;;;;;;;53.92;30.10;;;;;;;6.71;55.95;102472.16;5037190;28;20075;-80
2024/01/23 08:26:06;;;;;;;45.40;31.48;;;;;;;6.70;55.49;102471.31;5044862;28;20474;-81
2024/01/23 08:28:47;;;;;;;55.17;31.85;;;;;;;6.72;55.99;102482.63;5046790;28;20284;-80
2024/01/23 08:31:14;;;;;;;53.38;30.75;;;;;;;6.68;55.69;102477.56;5048606;28;20124;-81
2024/01/23 08:33:43;;;;;;;48.45;30.60;;;;;;;6.45;55.77;102434.53;5046815;28;20052;-79
2024/01/23 08:36:14;;;;;;;43.53;29.08;;;;;;;6.85;55.41;102489.13;5025951;28;20136;-81
2024/01/23 08:38:46;;;;;;;45.38;30.02;;;;;;;6.75;55.42;102457.91;5035836;28;20065;-81
2024/01/23 08:41:12;;;;;;;50.42;29.98;;;;;;;6.78;54.85;102447.22;5027117;28;20045;-81
2024/01/23 08:43:39;;;;;;;46.17;30.35;;;;;;;6.88;54.23;102458.22;5042930;28;20052;-81
2024/01/23 08:46:12;;;;;;;45.65;30.27;;;;;;;6.78;54.91;102447.22;5050979;28;20650;-77
2024/01/23 08:48:45;;;;;;;46.45;31.17;;;;;;;7.05;54.97;102498.81;5037572;28;20046;-79
2024/01/23 08:51:13;;;;;;;46.60;31.08;;;;;;;6.80;54.49;102448.00;5031203;28;20041;-78
2024/01/23 08:53:41;;;;;;;45.35;29.05;;;;;;;6.42;54.04;102364.28;5047138;28;20060;-80
2024/01/23 08:56:10;;;;;;;48.20;30.83;;;;;;;7.26;53.62;102496.16;5053278;28;20072;-81
2024/01/23 08:58:36;;;;;;;52.25;30.00;;;;;;;7.12;53.43;102485.34;5043645;28;20053;-81
2024/01/23 09:01:06;;;;;;;42.72;27.27;;;;;;;7.21;53.14;102477.00;5047772;28;20052;-81
2024/01/23 09:03:35;;;;;;;55.05;29.20;;;;;;;7.32;53.11;102501.16;5036613;28;20053;-81
2024/01/23 09:06:09;;;;;;;48.25;30.50;;;;;;;7.13;53.41;102500.25;5011334;28;20611;-80
2024/01/23 09:08:42;;;;;;;46.10;30.40;;;;;;;7.26;53.65;102519.94;5011072;28;20049;-80
2024/01/23 09:11:16;;;;;;;48.58;31.20;;;;;;;7.23;53.30;102525.31;5012017;28;20116;-79
2024/01/23 09:13:43;;;;;;;47.25;29.88;;;;;;;6.49;54.17;102404.47;5026379;28;20523;-81
2024/01/23 09:16:10;;;;;;;43.78;29.20;;;;;;;7.16;53.79;102519.47;5039744;28;20064;-81
2024/01/23 09:18:37;;;;;;;45.28;28.60;;;;;;;7.28;53.37;102531.25;5048089;28;20045;-81
2024/01/23 09:21:04;;;;;;;44.08;29.30;;;;;;;7.13;53.43;102506.38;5036077;28;20127;-79
2024/01/23 09:23:37;;;;;;;46.05;28.90;;;;;;;7.02;53.45;102485.75;5042859;28;20041;-79
2024/01/23 09:26:06;;;;;;;41.70;27.92;;;;;;;7.40;53.33;102530.75;5029681;28;20041;-79
2024/01/23 09:28:39;;;;;;;50.75;29.25;;;;;;;7.31;53.67;102515.28;5011036;28;20046;-80
2024/01/23 09:31:09;;;;;;;45.60;27.42;;;;;;;7.57;53.20;102542.31;4993307;28;20042;-79
2024/01/23 09:33:35;;;;;;;43.60;25.92;;;;;;;7.59;53.45;102541.31;5010260;28;20054;-80
2024/01/23 09:36:03;;;;;;;42.67;27.55;;;;;;;7.69;53.14;102560.25;5015031;28;20052;-81
2024/01/23 09:38:36;;;;;;;45.13;28.92;;;;;;;7.64;54.00;102557.81;5044289;28;20059;-81
2024/01/23 09:41:11;;;;;;;48.35;29.33;;;;;;;7.17;52.28;102470.13;5031164;28;20057;-80
2024/01/23 09:43:48;;;;;;;46.53;28.05;;;;;;;7.70;52.26;102559.34;5032153;28;20467;-81
2024/01/23 09:46:16;;;;;;;44.92;28.75;;;;;;;7.69;52.68;102578.75;5045439;28;20103;-81
2024/01/23 09:48:43;;;;;;;46.00;29.45;;;;;;;7.51;52.90;102556.69;5012101;28;20422;-82
2024/01/23 09:51:14;;;;;;;43.80;28.02;;;;;;;7.22;52.90;102497.22;5009975;28;20046;-81
2024/01/23 09:53:44;;;;;;;46.97;29.92;;;;;;;7.68;53.55;102561.19;5023334;28;20063;-80
2024/01/23 09:56:11;;;;;;;49.17;29.88;;;;;;;7.75;52.58;102575.84;5029481;28;20047;-78
2024/01/23 09:58:38;;;;;;;49.95;30.75;;;;;;;7.89;52.75;102581.38;5047988;28;20060;-79
2024/01/23 10:01:05;;;;;;;49.88;29.70;;;;;;;8.13;51.97;102584.66;5030066;28;20049;-82
2024/01/23 10:03:36;;;;;;;43.53;28.95;;;;;;;8.10;51.81;102557.47;5038538;28;20084;-80
2024/01/23 10:06:04;;;;;;;48.25;29.55;;;;;;;8.19;50.93;102551.75;5039285;28;20407;-79
2024/01/23 10:08:31;;;;;;;43.72;28.52;;;;;;;8.24;51.08;102539.16;5046403;28;20392;-80
2024/01/23 10:11:04;;;;;;;49.75;30.10;;;;;;;8.34;51.29;102548.38;5046589;28;20418;-79
2024/01/23 10:13:31;;;;;;;58.80;31.38;;;;;;;8.29;50.13;102550.38;5046752;28;20053;-81
2024/01/23 10:16:18;;;;;;;49.55;31.92;;;;;;;8.13;50.95;102525.59;5051204;28;20071;-82
2024/01/23 10:18:50;;;;;;;49.35;30.55;;;;;;;7.73;51.31;102448.16;5028911;28;20136;-79
2024/01/23 10:21:21;;;;;;;47.00;29.58;;;;;;;8.12;51.02;102502.72;5046626;28;20045;-81
2024/01/23 10:23:52;;;;;;;44.30;30.00;;;;;;;8.26;51.24;102529.38;5047231;28;20132;-81
2024/01/23 10:26:23;;;;;;;49.20;30.88;;;;;;;8.12;51.45;102503.56;5047251;28;20045;-83
2024/01/23 10:28:53;;;;;;;49.38;29.58;;;;;;;8.35;50.54;102531.56;5046385;28;20103;-81
2024/01/23 10:31:19;;;;;;;43.10;27.13;;;;;;;8.26;50.88;102502.91;5047587;28;20049;-79
2024/01/23 10:33:46;;;;;;;52.55;29.23;;;;;;;8.20;51.45;102497.91;5058677;28;20366;-79
2024/01/23 10:36:14;;;;;;;43.92;28.83;;;;;;;8.30;51.34;102508.91;5050252;28;20056;-81
2024/01/23 10:38:49;;;;;;;44.17;30.00;;;;;;;8.39;51.60;102534.06;5067657;28;20048;-81
2024/01/23 10:41:18;;;;;;;44.92;26.73;;;;;;;8.42;52.01;102534.78;5067413;28;20102;-80
2024/01/23 10:43:49;;;;;;;46.40;28.25;;;;;;;8.49;51.46;102522.97;5052226;28;20040;-79
2024/01/23 10:46:16;;;;;;;52.45;30.17;;;;;;;8.56;51.44;102528.81;5065160;28;20048;-81
2024/01/23 10:48:46;;;;;;;51.83;29.02;;;;;;;8.20;51.16;102468.78;5051872;28;20135;-80
2024/01/23 10:51:20;;;;;;;49.92;27.73;;;;;;;8.46;52.26;102501.09;5034452;28;20139;-81
2024/01/23 10:53:59;;;;;;;44.22;27.70;;;;;;;8.48;52.22;102517.78;5050086;28;20154;-81
2024/01/23 10:56:50;;;;;;;49.65;28.35;;;;;;;8.33;51.79;102485.81;5053729;28;20076;-80
2024/01/23 10:59:25;;;;;;;47.83;30.10;;;;;;;8.43;52.24;102506.56;5030427;28;20338;-79
2024/01/23 11:02:08;;;;;;;45.15;28.40;;;;;;;8.52;51.95;102532.56;5031527;28;20057;-81
2024/01/23 11:04:35;;;;;;;47.88;29.35;;;;;;;8.43;51.87;102495.97;5046962;28;20053;-82
2024/01/23 11:07:15;;;;;;;49.38;30.50;;;;;;;8.76;50.68;102531.34;5045982;28;20068;-82
2024/01/23 11:09:59;;;;;;;44.60;28.35;;;;;;;8.29;50.42;102441.03;5049550;28;20058;-83
2024/01/23 11:12:54;;;;;;;40.28;28.05;;;;;;;8.97;49.73;102536.47;5052040;28;20052;-79
2024/01/23 11:15:31;;;;;;;42.20;28.58;;;;;;;8.82;50.23;102502.84;5062994;28;20048;-82
2024/01/23 11:18:25;;;;;;;50.45;28.75;;;;;;;9.09;50.25;102533.19;5049811;28;20100;-79
2024/01/23 11:21:03;;;;;;;43.70;27.92;;;;;;;8.96;49.13;102513.56;5048578;28;20051;-80
2024/01/23 11:23:45;;;;;;;40.58;27.42;;;;;;;8.97;49.33;102532.03;5051083;28;20139;-82
2024/01/23 11:26:19;;;;;;;;;;;;;;;8.99;49.92;102529.31;5068955;28;20425;-81
2024/01/23 11:28:58;;;;;;;42.05;27.52;;;;;;;8.97;49.48;102523.22;5049920;28;19924;-80